Time;durP1;ratioP1;P1;durP2;ratioP2;P2;SDS_P1;SDS_P2;PMS_P1;PMS_P2;Temp;Humidity;BMP_temperature;BMP_pressure;BME280_temperature;BME280_humidity;BME280_pressure;Samples;Min_cycle;Max_cycle;Signal;HPM_P1;HPM_P2
2021/11/14 00:01:15;;;;;;;11.17;8.63;;;9.00;99.90;;;;;;4982221;28;20205;-63
2021/11/14 00:03:40;;;;;;;11.03;8.93;;;9.10;99.90;;;;;;4983338;28;20189;-66
2021/11/14 00:06:07;;;;;;;9.77;8.20;;;9.10;99.90;;;;;;4984097;28;20222;-63
2021/11/14 00:08:34;;;;;;;12.07;8.80;;;9.00;99.90;;;;;;4983469;28;20190;-63
2021/11/14 00:11:04;;;;;;;10.10;8.07;;;9.00;99.90;;;;;;4983386;28;20260;-62
2021/11/14 00:13:30;;;;;;;10.07;8.67;;;9.00;99.90;;;;;;4983639;28;20212;-62
2021/11/14 00:15:56;;;;;;;10.73;8.70;;;9.00;99.90;;;;;;4983199;28;20768;-60
2021/11/14 00:18:22;;;;;;;9.77;8.40;;;9.00;99.90;;;;;;4981615;28;20209;-62
2021/11/14 00:20:48;;;;;;;9.53;8.13;;;9.10;99.90;;;;;;4982038;28;20166;-61
2021/11/14 00:23:14;;;;;;;8.90;7.97;;;9.10;99.90;;;;;;4980777;28;20200;-60
2021/11/14 00:25:40;;;;;;;10.13;8.10;;;9.10;99.90;;;;;;4981044;28;20257;-63
2021/11/14 00:28:08;;;;;;;9.03;7.57;;;9.10;99.90;;;;;;4980864;28;20191;-58
2021/11/14 00:30:35;;;;;;;9.97;7.77;;;9.10;99.90;;;;;;4981601;28;20189;-60
2021/11/14 00:33:01;;;;;;;9.00;7.90;;;9.20;99.90;;;;;;4981188;28;20187;-61
2021/11/14 00:35:28;;;;;;;9.67;8.40;;;9.10;99.90;;;;;;4980797;28;20260;-63
2021/11/14 00:37:54;;;;;;;10.67;8.43;;;9.10;99.90;;;;;;4981070;28;20700;-62
2021/11/14 00:40:22;;;;;;;10.70;8.13;;;9.10;99.90;;;;;;4981844;28;20189;-63
2021/11/14 00:42:49;;;;;;;10.87;8.13;;;9.10;99.90;;;;;;4979727;28;20170;-62
2021/11/14 00:45:15;;;;;;;11.00;8.67;;;9.00;99.90;;;;;;4980803;28;20556;-63
2021/11/14 00:47:44;;;;;;;9.90;8.03;;;9.00;99.90;;;;;;4981173;28;20197;-59
2021/11/14 00:50:11;;;;;;;10.03;8.17;;;9.00;99.90;;;;;;4980060;28;20552;-62
2021/11/14 00:52:41;;;;;;;9.20;7.70;;;9.10;99.90;;;;;;4980174;28;20166;-61
2021/11/14 00:55:09;;;;;;;9.70;7.90;;;9.00;99.90;;;;;;4979986;28;20205;-60
2021/11/14 00:57:35;;;;;;;10.70;8.63;;;9.00;99.90;;;;;;4982359;28;20201;-59
2021/11/14 01:00:02;;;;;;;9.77;8.03;;;9.00;99.90;;;;;;4980234;28;20170;-62
2021/11/14 01:02:28;;;;;;;9.93;8.07;;;9.00;99.90;;;;;;4979684;28;20215;-62
2021/11/14 01:04:53;;;;;;;9.53;8.10;;;10.50;99.90;;;;;;4980937;28;20194;-62
2021/11/14 01:07:19;;;;;;;9.80;7.93;;;9.00;99.90;;;;;;4994548;28;20213;-62
2021/11/14 01:09:44;;;;;;;9.27;8.17;;;9.10;99.90;;;;;;4979803;28;20178;-63
2021/11/14 01:12:11;;;;;;;9.70;8.10;;;9.10;99.90;;;;;;4979897;28;20182;-59
2021/11/14 01:14:36;;;;;;;10.40;8.03;;;9.10;99.90;;;;;;4979279;28;20200;-61
2021/11/14 01:17:03;;;;;;;9.97;8.60;;;9.10;99.90;;;;;;4979744;28;20194;-62
2021/11/14 01:19:29;;;;;;;9.50;7.80;;;9.10;99.90;;;;;;4978833;28;20189;-62
2021/11/14 01:21:55;;;;;;;10.33;8.10;;;9.10;99.90;;;;;;4979955;28;20256;-59
2021/11/14 01:24:21;;;;;;;9.50;7.93;;;9.10;99.90;;;;;;4980761;28;20268;-59
2021/11/14 01:26:46;;;;;;;10.87;7.97;;;10.60;99.90;;;;;;4980415;28;20660;-64
2021/11/14 01:29:12;;;;;;;9.83;8.07;;;9.10;99.90;;;;;;4995413;28;20213;-63
2021/11/14 01:31:38;;;;;;;10.00;7.47;;;10.00;99.90;;;;;;4980234;28;20178;-62
2021/11/14 01:34:04;;;;;;;10.27;8.30;;;9.20;99.90;;;;;;4980515;28;20205;-64
2021/11/14 01:36:33;;;;;;;10.30;8.30;;;9.00;99.90;;;;;;4982449;28;20213;-59
2021/11/14 01:39:00;;;;;;;9.83;7.60;;;9.00;99.90;;;;;;4979601;28;20181;-59
2021/11/14 01:41:26;;;;;;;9.83;7.90;;;9.40;99.90;;;;;;4980676;28;20174;-66
2021/11/14 01:43:53;;;;;;;8.87;7.47;;;9.00;99.90;;;;;;4980229;28;20606;-65
2021/11/14 01:46:19;;;;;;;9.07;7.50;;;9.00;99.90;;;;;;4979758;28;20723;-62
2021/11/14 01:48:47;;;;;;;9.93;7.70;;;9.00;99.90;;;;;;4980932;28;20587;-62
2021/11/14 01:51:12;;;;;;;8.77;7.30;;;9.00;99.90;;;;;;4980080;28;20186;-62
2021/11/14 01:53:39;;;;;;;9.97;8.20;;;9.00;99.90;;;;;;4979807;28;20185;-64
2021/11/14 01:56:12;;;;;;;10.03;7.90;;;9.00;99.90;;;;;;4979244;28;20213;-64
2021/11/14 01:58:39;;;;;;;11.17;8.50;;;9.00;99.90;;;;;;4980017;28;20174;-64
2021/11/14 02:01:17;;;;;;;9.53;7.70;;;9.00;99.90;;;;;;4980054;28;20178;-64
2021/11/14 02:03:47;;;;;;;9.20;7.40;;;8.90;99.90;;;;;;4980510;28;20177;-64
2021/11/14 02:06:13;;;;;;;8.53;7.40;;;8.90;99.90;;;;;;4980846;28;20237;-63
2021/11/14 02:08:41;;;;;;;9.87;7.90;;;8.90;99.90;;;;;;4981006;28;20178;-65
2021/11/14 02:11:09;;;;;;;8.60;7.40;;;8.90;99.90;;;;;;4980386;28;20187;-63
2021/11/14 02:13:35;;;;;;;9.33;7.87;;;9.00;99.90;;;;;;4979864;28;20184;-65
2021/11/14 02:16:02;;;;;;;8.33;7.43;;;9.00;99.90;;;;;;4980831;28;20703;-63
2021/11/14 02:18:27;;;;;;;8.83;7.40;;;9.00;99.90;;;;;;4981344;28;20603;-61
2021/11/14 02:20:53;;;;;;;9.10;7.50;;;9.00;99.90;;;;;;4981762;28;20217;-65
2021/11/14 02:23:22;;;;;;;10.77;8.33;;;9.00;99.90;;;;;;4980383;28;20277;-65
2021/11/14 02:25:49;;;;;;;10.87;7.90;;;8.90;99.90;;;;;;4981065;28;20189;-63
2021/11/14 02:28:17;;;;;;;11.27;8.60;;;8.90;99.90;;;;;;4981716;28;20244;-64
2021/11/14 02:30:45;;;;;;;10.57;8.70;;;8.70;99.90;;;;;;4980625;28;20233;-64
2021/11/14 02:33:11;;;;;;;11.50;8.90;;;8.60;99.90;;;;;;4980614;28;20265;-64
2021/11/14 02:35:43;;;;;;;17.23;9.33;;;8.60;99.90;;;;;;4980741;28;20224;-64
2021/11/14 02:38:10;;;;;;;9.20;7.87;;;8.60;99.90;;;;;;4981187;28;20273;-62
2021/11/14 02:40:36;;;;;;;10.67;8.57;;;8.50;99.90;;;;;;4980971;28;20247;-65
2021/11/14 02:43:02;;;;;;;9.40;8.10;;;8.50;99.90;;;;;;4980891;28;20174;-65
2021/11/14 02:45:28;;;;;;;9.93;8.20;;;8.50;99.90;;;;;;4980367;28;20177;-65
2021/11/14 02:47:55;;;;;;;9.40;7.50;;;8.50;99.90;;;;;;4980969;28;20616;-64
2021/11/14 02:50:21;;;;;;;9.40;7.80;;;8.50;99.90;;;;;;4981264;28;20617;-64
2021/11/14 02:52:47;;;;;;;10.70;8.30;;;8.60;99.90;;;;;;4981472;28;20205;-64
2021/11/14 02:55:17;;;;;;;11.43;9.10;;;8.60;99.90;;;;;;4980783;28;20206;-64
2021/11/14 02:57:43;;;;;;;11.93;8.03;;;8.60;99.90;;;;;;4981535;28;20197;-63
2021/11/14 03:00:13;;;;;;;9.57;8.10;;;8.60;99.90;;;;;;4981857;28;20644;-63
2021/11/14 03:02:38;;;;;;;9.67;8.07;;;8.70;99.90;;;;;;4981390;28;20170;-64
2021/11/14 03:05:14;;;;;;;9.67;8.53;;;8.80;99.90;;;;;;4982061;28;20180;-64
2021/11/14 03:07:40;;;;;;;8.90;7.43;;;8.90;99.90;;;;;;4983014;28;20216;-65
2021/11/14 03:10:08;;;;;;;8.90;7.30;;;8.90;99.90;;;;;;4981890;28;20201;-60
2021/11/14 03:12:34;;;;;;;9.37;7.50;;;8.90;99.90;;;;;;4979134;28;20182;-62
2021/11/14 03:15:00;;;;;;;8.77;7.67;;;9.00;99.90;;;;;;4979888;28;20261;-63
2021/11/14 03:17:26;;;;;;;8.67;7.47;;;9.00;99.90;;;;;;4979779;28;20232;-65
2021/11/14 03:19:53;;;;;;;8.97;7.60;;;9.00;99.90;;;;;;4980805;28;20170;-63
2021/11/14 03:22:18;;;;;;;9.23;7.77;;;9.00;99.90;;;;;;4980642;28;20166;-65
2021/11/14 03:24:44;;;;;;;8.50;7.33;;;9.00;99.90;;;;;;4980636;28;20196;-62
2021/11/14 03:27:11;;;;;;;9.57;7.77;;;9.00;99.90;;;;;;4980478;28;20237;-61
2021/11/14 03:29:36;;;;;;;9.50;7.67;;;9.10;99.90;;;;;;4980935;28;20252;-63
2021/11/14 03:32:04;;;;;;;10.03;8.47;;;9.10;99.90;;;;;;4981076;28;20177;-63
2021/11/14 03:34:30;;;;;;;10.13;8.33;;;9.10;99.90;;;;;;4980772;28;20178;-62
2021/11/14 03:36:55;;;;;;;9.67;8.20;;;9.20;99.90;;;;;;4981002;28;20220;-62
2021/11/14 03:39:21;;;;;;;10.17;8.20;;;9.10;99.90;;;;;;4980894;28;20308;-64
2021/11/14 03:41:46;;;;;;;8.33;7.17;;;9.20;99.90;;;;;;4980854;28;20240;-62
2021/11/14 03:44:12;;;;;;;9.83;7.47;;;9.60;99.90;;;;;;4984553;28;20207;-62
2021/11/14 03:46:38;;;;;;;9.87;7.60;;;9.20;99.90;;;;;;4984596;28;20233;-61
2021/11/14 03:49:04;;;;;;;8.60;7.70;;;9.20;99.90;;;;;;4984708;28;20212;-62
2021/11/14 03:51:30;;;;;;;8.47;7.03;;;9.20;99.90;;;;;;4985444;28;20181;-62
2021/11/14 03:53:58;;;;;;;8.73;7.50;;;9.30;99.90;;;;;;4983966;28;20324;-59
2021/11/14 03:56:25;;;;;;;9.27;7.53;;;10.40;99.90;;;;;;4984971;28;20241;-62
2021/11/14 03:58:50;;;;;;;8.20;7.13;;;9.30;99.90;;;;;;4984950;28;20174;-64
2021/11/14 04:01:19;;;;;;;9.30;8.00;;;10.40;99.90;;;;;;4984295;28;20205;-62
2021/11/14 04:03:46;;;;;;;10.20;8.83;;;9.20;99.90;;;;;;4984880;28;20181;-63
2021/11/14 04:06:14;;;;;;;10.87;8.50;;;9.30;99.90;;;;;;4984692;28;20217;-62
2021/11/14 04:08:39;;;;;;;8.77;7.77;;;9.20;99.90;;;;;;4985167;28;20182;-63
2021/11/14 04:11:05;;;;;;;9.23;7.87;;;9.20;99.90;;;;;;4985039;28;20208;-64
2021/11/14 04:13:31;;;;;;;9.13;7.70;;;9.20;99.90;;;;;;4984651;28;20186;-66
2021/11/14 04:16:04;;;;;;;9.37;8.37;;;9.20;99.90;;;;;;4984822;28;20210;-66
2021/11/14 04:18:30;;;;;;;9.47;7.70;;;9.20;99.90;;;;;;4984907;28;20611;-64
2021/11/14 04:20:55;;;;;;;9.87;8.40;;;9.20;99.90;;;;;;4984321;28;20651;-63
2021/11/14 04:23:22;;;;;;;9.67;8.47;;;9.20;99.90;;;;;;4983044;28;20174;-64
2021/11/14 04:25:49;;;;;;;11.00;8.60;;;9.20;99.90;;;;;;4983088;28;20229;-64
2021/11/14 04:28:16;;;;;;;12.23;9.03;;;9.20;99.90;;;;;;4982750;28;20181;-62
2021/11/14 04:30:43;;;;;;;10.23;8.67;;;9.30;99.90;;;;;;4995835;28;20579;-61
2021/11/14 04:33:09;;;;;;;9.77;7.73;;;9.30;99.90;;;;;;4980281;28;20186;-63
2021/11/14 04:35:35;;;;;;;9.73;7.90;;;9.30;99.90;;;;;;4981522;28;20247;-60
2021/11/14 04:38:00;;;;;;;8.97;7.70;;;9.30;99.90;;;;;;4981307;28;20174;-64
2021/11/14 04:40:28;;;;;;;8.73;7.80;;;9.30;99.90;;;;;;4981189;28;20174;-59
2021/11/14 04:42:54;;;;;;;7.70;6.80;;;9.10;99.90;;;;;;4981254;28;20181;-61
2021/11/14 04:45:21;;;;;;;8.73;7.23;;;9.00;99.90;;;;;;4981076;28;20185;-59
2021/11/14 04:47:47;;;;;;;9.43;7.60;;;9.00;99.90;;;;;;4981043;28;20209;-62
2021/11/14 04:50:14;;;;;;;8.03;6.90;;;9.00;99.90;;;;;;4980506;28;20169;-61
2021/11/14 04:52:40;;;;;;;8.87;7.87;;;9.10;99.90;;;;;;4980971;28;20189;-63
2021/11/14 04:55:07;;;;;;;7.47;6.50;;;9.10;99.90;;;;;;4981841;28;20217;-59
2021/11/14 04:57:33;;;;;;;8.13;6.93;;;9.70;99.90;;;;;;4981261;28;20612;-60
2021/11/14 04:59:59;;;;;;;7.83;6.90;;;9.20;99.90;;;;;;4981098;28;20182;-62
2021/11/14 05:02:25;;;;;;;8.50;7.43;;;9.20;99.90;;;;;;4981111;28;20205;-63
2021/11/14 05:04:50;;;;;;;8.70;7.43;;;9.20;99.90;;;;;;4980980;28;20177;-63
2021/11/14 05:07:16;;;;;;;8.37;6.77;;;9.20;99.90;;;;;;5020780;23;20232;-51
2021/11/14 05:09:42;;;;;;;7.90;6.80;;;9.20;99.90;;;;;;5013335;28;20271;-55
2021/11/14 05:12:08;;;;;;;9.03;7.23;;;9.20;99.90;;;;;;5012765;28;20538;-54
2021/11/14 05:14:33;;;;;;;7.97;7.17;;;9.20;99.90;;;;;;5012645;28;20203;-53
2021/11/14 05:16:59;;;;;;;8.37;7.30;;;9.20;99.90;;;;;;5012843;28;20301;-51
2021/11/14 05:19:24;;;;;;;8.03;7.00;;;9.20;99.90;;;;;;5012477;28;20215;-54
2021/11/14 05:21:50;;;;;;;8.13;7.10;;;9.30;99.90;;;;;;5012314;28;20172;-49
2021/11/14 05:24:16;;;;;;;8.57;6.67;;;9.30;99.90;;;;;;5012962;28;20244;-54
2021/11/14 05:26:41;;;;;;;8.37;7.40;;;9.30;99.90;;;;;;5012508;28;20203;-53
2021/11/14 05:29:07;;;;;;;9.67;7.30;;;9.30;99.90;;;;;;5012493;28;20547;-49
2021/11/14 05:31:33;;;;;;;9.17;7.70;;;9.30;99.90;;;;;;5012473;28;20183;-51
2021/11/14 05:33:59;;;;;;;8.27;7.43;;;9.30;99.90;;;;;;5012182;28;20187;-49
2021/11/14 05:36:25;;;;;;;8.93;7.80;;;9.30;99.90;;;;;;5012294;28;20208;-50
2021/11/14 05:38:51;;;;;;;8.57;7.67;;;9.30;99.90;;;;;;5012781;28;20307;-52
2021/11/14 05:41:17;;;;;;;8.37;7.20;;;9.30;99.90;;;;;;5012736;28;20663;-49
2021/11/14 05:43:43;;;;;;;10.30;7.83;;;9.30;99.90;;;;;;5012275;28;20319;-49
2021/11/14 05:46:09;;;;;;;8.53;7.23;;;9.20;99.90;;;;;;5012326;28;20271;-52
2021/11/14 05:48:34;;;;;;;8.20;6.90;;;9.10;99.90;;;;;;5012525;28;20180;-49
2021/11/14 05:51:00;;;;;;;8.13;6.93;;;9.20;99.90;;;;;;5012333;28;20780;-51
2021/11/14 05:53:26;;;;;;;9.67;7.53;;;9.20;99.90;;;;;;5012309;28;20687;-53
2021/11/14 05:55:52;;;;;;;7.50;6.70;;;9.20;99.90;;;;;;5012227;28;20208;-53
2021/11/14 05:58:22;;;;;;;8.37;7.00;;;9.20;99.90;;;;;;5012191;28;20200;-50
2021/11/14 06:01:14;;;;;;;10.60;8.37;;;9.20;99.90;;;;;;5012286;28;20186;-54
2021/11/14 06:03:39;;;;;;;10.17;7.60;;;9.10;99.90;;;;;;5011717;28;20606;-50
2021/11/14 06:06:07;;;;;;;9.17;7.57;;;9.10;99.90;;;;;;5011811;28;20202;-53
2021/11/14 06:08:32;;;;;;;8.27;7.37;;;9.10;99.90;;;;;;5012150;28;20204;-52
2021/11/14 06:10:58;;;;;;;8.67;7.30;;;9.00;99.90;;;;;;5012140;28;20231;-54
2021/11/14 06:13:26;;;;;;;9.53;7.53;;;9.00;99.90;;;;;;5011777;28;20180;-53
2021/11/14 06:15:52;;;;;;;8.73;7.40;;;8.90;99.90;;;;;;5012043;28;20287;-50
2021/11/14 06:18:18;;;;;;;8.73;7.57;;;8.80;99.90;;;;;;5011543;28;20204;-55
2021/11/14 06:20:44;;;;;;;8.43;6.57;;;8.70;99.90;;;;;;5011772;28;20181;-52
2021/11/14 06:23:11;;;;;;;8.13;7.10;;;8.70;99.90;;;;;;5011456;28;20658;-51
2021/11/14 06:25:36;;;;;;;8.43;7.10;;;8.70;99.90;;;;;;5011661;28;20647;-51
2021/11/14 06:28:03;;;;;;;7.73;6.63;;;8.70;99.90;;;;;;5011486;28;20215;-54
2021/11/14 06:30:29;;;;;;;6.93;6.07;;;8.70;99.90;;;;;;5011500;28;20181;-50
2021/11/14 06:32:56;;;;;;;9.03;6.83;;;8.60;99.90;;;;;;5011384;28;20184;-55
2021/11/14 06:35:22;;;;;;;8.93;7.10;;;8.60;99.90;;;;;;5011582;28;20578;-54
2021/11/14 06:37:48;;;;;;;11.00;6.73;;;8.60;99.90;;;;;;5011449;28;20200;-53
2021/11/14 06:40:14;;;;;;;7.73;6.93;;;8.50;99.90;;;;;;5011356;28;20212;-53
2021/11/14 06:42:40;;;;;;;9.17;7.30;;;8.60;99.90;;;;;;5010978;28;20647;-52
2021/11/14 06:45:06;;;;;;;7.20;6.37;;;8.60;99.90;;;;;;5011148;28;20180;-53
2021/11/14 06:47:32;;;;;;;7.83;6.77;;;8.60;99.90;;;;;;5011268;28;20214;-54
2021/11/14 06:49:58;;;;;;;8.10;6.83;;;8.60;99.90;;;;;;5011231;28;20806;-56
2021/11/14 06:52:23;;;;;;;7.60;6.67;;;8.60;99.90;;;;;;5011000;28;20251;-56
2021/11/14 06:54:50;;;;;;;6.70;6.00;;;8.70;99.90;;;;;;5010896;28;20272;-51
2021/11/14 06:57:16;;;;;;;7.53;6.70;;;8.70;99.90;;;;;;5009828;28;20273;-57
2021/11/14 06:59:41;;;;;;;7.97;7.00;;;8.70;99.90;;;;;;5002200;28;20272;-54
2021/11/14 07:02:08;;;;;;;9.77;6.87;;;8.80;99.90;;;;;;5011288;28;20184;-50
2021/11/14 07:04:34;;;;;;;7.97;7.17;;;8.80;99.90;;;;;;5030907;28;20183;-54
2021/11/14 07:07:00;;;;;;;7.43;6.03;;;8.90;99.90;;;;;;5013650;28;20208;-51
2021/11/14 07:09:26;;;;;;;6.57;5.97;;;9.00;99.90;;;;;;5010949;28;20176;-53
2021/11/14 07:11:53;;;;;;;6.77;6.07;;;9.10;99.90;;;;;;5010664;28;20172;-46
2021/11/14 07:14:21;;;;;;;6.20;5.60;;;9.60;99.90;;;;;;5010883;28;20225;-48
2021/11/14 07:16:47;;;;;;;6.37;5.33;;;10.20;99.90;;;;;;4999317;28;20737;-51
2021/11/14 07:19:12;;;;;;;4.93;4.53;;;11.10;99.90;;;;;;5015368;28;20195;-49
2021/11/14 07:21:38;;;;;;;5.40;4.90;;;11.70;99.90;;;;;;5007432;28;20215;-54
2021/11/14 07:24:04;;;;;;;4.80;4.40;;;12.10;99.90;;;;;;5030417;28;20643;-50
2021/11/14 07:26:29;;;;;;;6.57;5.37;;;12.40;99.90;;;;;;5014375;28;20196;-50
2021/11/14 07:28:55;;;;;;;5.93;5.07;;;12.60;99.90;;;;;;5014458;28;20203;-52
2021/11/14 07:31:21;;;;;;;5.07;4.60;;;12.90;99.90;;;;;;5014483;28;20187;-52
2021/11/14 07:33:47;;;;;;;4.97;4.50;;;13.00;99.90;;;;;;5019090;28;20523;-54
2021/11/14 07:36:12;;;;;;;5.13;4.63;;;13.30;99.90;;;;;;5031831;28;20207;-52
2021/11/14 07:38:38;;;;;;;6.10;5.50;;;13.50;99.90;;;;;;5014561;28;20567;-52
2021/11/14 07:41:03;;;;;;;5.83;5.23;;;13.70;99.90;;;;;;5014374;28;20660;-50
2021/11/14 07:43:29;;;;;;;6.43;4.97;;;13.90;99.90;;;;;;5014050;28;20643;-49
2021/11/14 07:45:55;;;;;;;5.50;5.00;;;14.30;99.90;;;;;;5014356;28;20639;-51
2021/11/14 07:48:20;;;;;;;5.97;4.63;;;14.70;99.90;;;;;;5014027;28;20237;-52
2021/11/14 07:50:46;;;;;;;6.47;4.50;;;15.10;99.90;;;;;;5002881;28;20560;-50
2021/11/14 07:53:13;;;;;;;4.30;3.90;;;15.60;99.90;;;;;;4994069;28;20645;-52
2021/11/14 07:55:39;;;;;;;4.40;4.00;;;16.00;99.90;;;;;;4994408;28;20209;-50
2021/11/14 07:58:06;;;;;;;4.00;3.70;;;16.50;99.90;;;;;;4994074;28;20288;-52
2021/11/14 08:00:33;;;;;;;4.10;3.70;;;17.00;99.90;;;;;;5011886;28;20176;-52
2021/11/14 08:02:59;;;;;;;5.73;4.27;;;17.40;99.90;;;;;;5013742;28;20714;-54
2021/11/14 08:05:28;;;;;;;5.07;4.57;;;17.80;99.90;;;;;;5013592;28;20187;-55
2021/11/14 08:07:53;;;;;;;5.27;4.77;;;18.10;99.90;;;;;;5013883;28;20215;-50
2021/11/14 08:10:20;;;;;;;5.77;5.17;;;18.20;99.90;;;;;;5018638;28;20571;-55
2021/11/14 08:12:46;;;;;;;5.73;5.23;;;18.20;99.90;;;;;;5025548;28;20177;-48
2021/11/14 08:15:13;;;;;;;5.80;5.30;;;18.10;99.90;;;;;;5013551;28;20216;-49
2021/11/14 08:17:39;;;;;;;6.50;5.13;;;18.10;99.90;;;;;;5010068;28;20682;-54
2021/11/14 08:20:05;;;;;;;5.03;4.53;;;18.30;99.90;;;;;;5019708;28;20185;-48
2021/11/14 08:22:31;;;;;;;4.97;4.47;;;18.50;99.90;;;;;;5032951;28;20180;-56
2021/11/14 08:24:58;;;;;;;4.87;4.30;;;19.00;99.90;;;;;;5017417;28;20663;-55
2021/11/14 08:27:24;;;;;;;4.37;4.00;;;19.60;99.80;;;;;;5011445;28;20192;-52
2021/11/14 08:29:50;;;;;;;5.80;5.20;;;20.00;99.30;;;;;;5012149;28;20197;-53
2021/11/14 08:32:19;;;;;;;16.30;14.87;;;20.30;98.70;;;;;;5003157;28;20181;-48
2021/11/14 08:34:45;;;;;;;13.87;12.67;;;20.30;97.60;;;;;;5008052;28;20184;-48
2021/11/14 08:37:12;;;;;;;14.00;12.70;;;19.90;97.60;;;;;;5032921;28;20207;-49
2021/11/14 08:39:39;;;;;;;8.20;7.50;;;19.80;97.70;;;;;;5013531;28;20201;-55
2021/11/14 08:42:06;;;;;;;5.80;5.30;;;19.50;97.90;;;;;;4995270;28;20244;-48
2021/11/14 08:44:32;;;;;;;5.80;5.17;;;19.20;98.00;;;;;;4994486;28;20171;-53
2021/11/14 08:46:58;;;;;;;5.17;4.67;;;18.60;98.50;;;;;;4993650;28;20202;-48
2021/11/14 08:49:24;;;;;;;4.80;4.40;;;18.20;99.20;;;;;;5004997;28;20274;-50
2021/11/14 08:51:51;;;;;;;5.07;4.57;;;18.00;99.90;;;;;;5008359;28;20178;-53
2021/11/14 08:54:17;;;;;;;4.70;4.30;;;18.00;99.90;;;;;;5015589;28;20585;-49
2021/11/14 08:56:43;;;;;;;10.17;9.27;;;18.00;99.90;;;;;;4999119;28;20207;-49
2021/11/14 08:59:09;;;;;;;23.83;18.53;;;18.10;99.90;;;;;;4998340;28;20195;-53
2021/11/14 09:01:35;;;;;;;17.43;13.33;;;18.20;99.90;;;;;;5009891;28;20186;-53
2021/11/14 09:04:01;;;;;;;5.80;5.30;;;18.30;99.90;;;;;;5008962;28;20228;-58
2021/11/14 09:06:28;;;;;;;5.60;5.10;;;18.70;99.70;;;;;;4997409;28;20178;-55
2021/11/14 09:08:54;;;;;;;5.30;4.80;;;19.30;99.70;;;;;;5010382;28;20185;-52
2021/11/14 09:11:21;;;;;;;5.60;5.10;;;19.70;98.90;;;;;;5008522;28;20176;-52
2021/11/14 09:13:46;;;;;;;5.17;4.70;;;19.60;98.60;;;;;;4997909;28;20183;-49
2021/11/14 09:16:12;;;;;;;5.93;5.43;;;19.10;98.80;;;;;;5003868;28;20204;-52
2021/11/14 09:18:38;;;;;;;5.53;5.03;;;18.70;99.30;;;;;;5004309;28;20184;-54
2021/11/14 09:21:04;;;;;;;5.67;5.17;;;18.50;99.90;;;;;;4999657;28;20179;-53
2021/11/14 09:23:30;;;;;;;6.70;4.93;;;18.80;99.90;;;;;;5006148;28;20183;-54
2021/11/14 09:25:56;;;;;;;6.27;5.20;;;19.60;99.90;;;;;;5012463;28;20260;-52
2021/11/14 09:28:22;;;;;;;4.97;4.50;;;20.80;98.60;;;;;;5007331;28;20204;-53
2021/11/14 09:30:50;;;;;;;4.93;4.47;;;21.80;97.30;;;;;;5009356;28;20264;-55
2021/11/14 09:33:17;;;;;;;4.90;4.47;;;22.40;95.70;;;;;;5007074;28;20179;-51
2021/11/14 09:35:43;;;;;;;5.07;4.57;;;22.50;95.50;;;;;;5002382;28;20666;-52
2021/11/14 09:38:09;;;;;;;4.60;4.20;;;22.70;95.60;;;;;;4992349;28;20251;-54
2021/11/14 09:40:36;;;;;;;4.85;4.30;;;23.30;95.10;;;;;;4991743;28;20184;-55
2021/11/14 09:43:02;;;;;;;4.15;3.78;;;24.50;94.00;;;;;;5000970;28;20674;-56
2021/11/14 09:45:34;;;;;;;3.83;3.53;;;25.80;92.10;;;;;;5011863;28;20367;-54
2021/11/14 09:48:00;;;;;;;4.18;3.88;;;27.30;91.00;;;;;;5012383;28;20239;-53
2021/11/14 09:50:28;;;;;;;3.72;3.42;;;29.10;87.40;;;;;;5011726;28;20173;-54
2021/11/14 09:52:54;;;;;;;3.80;3.50;;;30.90;83.40;;;;;;5029275;28;20183;-54
2021/11/14 09:55:20;;;;;;;3.20;3.00;;;32.90;76.30;;;;;;5020172;28;20201;-53
2021/11/14 09:57:48;;;;;;;3.45;3.25;;;33.90;65.90;;;;;;5003607;28;20193;-55
2021/11/14 10:00:17;;;;;;;3.47;3.17;;;34.30;62.20;;;;;;5010495;28;20259;-49
2021/11/14 10:02:43;;;;;;;4.13;3.72;;;35.20;61.30;;;;;;5003340;28;20185;-52
2021/11/14 10:05:10;;;;;;;4.43;3.53;;;36.50;56.90;;;;;;4992077;28;20680;-51
2021/11/14 10:07:37;;;;;;;3.40;3.10;;;37.30;54.80;;;;;;5016251;28;20207;-56
2021/11/14 10:10:06;;;;;;;3.35;3.10;;;37.90;52.20;;;;;;5031510;28;20168;-53
2021/11/14 10:12:35;;;;;;;3.50;3.20;;;38.30;50.80;;;;;;5030884;28;20164;-55
2021/11/14 10:15:21;;;;;;;2.70;2.53;;;39.00;50.40;;;;;;5031465;28;20180;-57
2021/11/14 10:17:55;;;;;;;4.20;3.90;;;39.70;48.30;;;;;;5031088;28;20207;-55
2021/11/14 10:20:30;;;;;;;4.20;3.90;;;38.70;48.50;;;;;;5014449;28;20689;-55
2021/11/14 10:23:02;;;;;;;3.60;3.40;;;37.80;49.10;;;;;;5010877;28;20183;-53
2021/11/14 10:25:28;;;;;;;4.22;3.92;;;36.60;50.60;;;;;;5007002;28;20678;-57
2021/11/14 10:28:02;;;;;;;12.43;5.15;;;36.50;49.70;;;;;;4997790;28;20208;-55
2021/11/14 10:30:30;;;;;;;3.92;3.63;;;36.90;49.60;;;;;;5002604;28;20267;-54
2021/11/14 10:32:58;;;;;;;4.20;3.90;;;37.00;50.10;;;;;;5002393;28;20546;-57
2021/11/14 10:35:24;;;;;;;3.53;3.30;;;37.80;48.20;;;;;;4998281;28;20331;-55
2021/11/14 10:37:52;;;;;;;3.63;3.33;;;38.50;48.10;;;;;;5006506;28;20227;-58
2021/11/14 10:40:40;;;;;;;3.05;2.85;;;39.60;47.30;;;;;;4999815;28;20184;-54
2021/11/14 10:43:06;;;;;;;4.00;3.70;;;40.60;44.20;;;;;;4999734;28;20263;-56
2021/11/14 10:45:36;;;;;;;3.70;3.50;;;41.10;44.50;;;;;;5001931;28;20206;-57
2021/11/14 10:48:06;;;;;;;3.50;3.30;;;41.70;43.20;;;;;;4993106;28;20208;-56
2021/11/14 10:50:37;;;;;;;4.03;3.72;;;42.00;43.40;;;;;;4993855;28;20187;-59
2021/11/14 10:53:09;;;;;;;5.25;4.63;;;42.50;41.20;;;;;;4991610;28;20214;-56
2021/11/14 10:55:43;;;;;;;5.28;4.82;;;41.80;40.00;;;;;;4991155;28;20228;-52
2021/11/14 10:58:09;;;;;;;6.22;5.63;;;40.80;40.60;;;;;;4990977;28;20300;-55
2021/11/14 11:00:37;;;;;;;7.15;6.55;;;39.90;40.70;;;;;;4991493;28;20173;-55
2021/11/14 11:03:03;;;;;;;9.25;8.40;;;38.60;42.90;;;;;;4990865;28;20595;-51
2021/11/14 11:05:30;;;;;;;15.65;14.25;;;36.00;45.00;;;;;;4991746;28;20214;-53
2021/11/14 11:08:00;;;;;;;15.05;13.65;;;32.80;48.40;;;;;;4990287;28;20209;-56
2021/11/14 11:10:36;;;;;;;15.13;13.57;;;30.90;51.20;;;;;;4991527;28;20568;-56
2021/11/14 11:13:05;;;;;;;15.35;13.95;;;29.20;54.40;;;;;;5008697;23;20228;-58
2021/11/14 11:15:39;;;;;;;15.52;14.07;;;28.90;55.10;;;;;;5008001;28;20214;-64
2021/11/14 11:18:06;;;;;;;14.68;13.32;;;29.60;54.40;;;;;;5011507;28;20176;-65
2021/11/14 11:20:32;;;;;;;15.45;14.05;;;29.80;54.10;;;;;;4996737;28;20166;-63
2021/11/14 11:23:03;;;;;;;14.82;13.32;;;29.30;54.50;;;;;;4996990;28;20205;-60
2021/11/14 11:25:38;;;;;;;14.95;13.57;;;28.90;55.40;;;;;;4995803;28;20176;-64
2021/11/14 11:28:10;;;;;;;15.70;14.30;;;28.10;56.90;;;;;;4994805;28;20267;-65
2021/11/14 11:30:43;;;;;;;15.10;13.60;;;27.20;58.20;;;;;;4997489;28;20185;-64
2021/11/14 11:33:09;;;;;;;14.95;13.45;;;26.90;59.90;;;;;;4996611;28;20197;-64
2021/11/14 11:35:35;;;;;;;15.50;14.00;;;27.60;57.50;;;;;;4997564;28;20729;-65
2021/11/14 11:38:02;;;;;;;15.45;13.95;;;28.40;56.90;;;;;;4996699;28;20252;-62
2021/11/14 11:40:27;;;;;;;15.60;14.18;;;27.90;57.50;;;;;;4998174;28;20587;-63
2021/11/14 11:42:54;;;;;;;16.00;14.40;;;27.20;58.70;;;;;;4997191;28;20190;-65
2021/11/14 11:45:35;;;;;;;17.70;15.85;;;26.20;60.20;;;;;;4996944;28;20208;-63
2021/11/14 11:48:11;;;;;;;18.20;16.30;;;24.90;61.30;;;;;;4998552;28;20231;-60
2021/11/14 11:50:37;;;;;;;18.17;16.38;;;23.00;66.20;;;;;;4998160;28;20170;-65
2021/11/14 11:53:03;;;;;;;19.02;17.08;;;22.80;66.10;;;;;;4998492;28;20222;-62
2021/11/14 11:55:38;;;;;;;17.70;16.00;;;22.60;66.40;;;;;;4998286;28;20340;-58
2021/11/14 11:58:13;;;;;;;20.50;18.30;;;23.10;66.20;;;;;;4999337;28;20157;-65
2021/11/14 12:00:58;;;;;;;18.90;17.10;;;23.80;65.60;;;;;;4998401;28;20176;-62
2021/11/14 12:03:34;;;;;;;20.00;17.90;;;24.40;64.60;;;;;;5000273;28;20831;-62
2021/11/14 12:06:00;;;;;;;21.55;19.35;;;24.70;64.20;;;;;;5003142;28;20615;-65
2021/11/14 12:08:58;;;;;;;21.77;19.48;;;23.70;66.30;;;;;;5002490;28;20232;-63
2021/11/14 12:11:36;;;;;;;22.67;20.27;;;22.50;68.40;;;;;;4940408;29;20781;-62
2021/11/14 12:14:22;;;;;;;23.70;21.20;;;21.30;70.90;;;;;;4938573;29;20282;-66
2021/11/14 12:17:01;;;;;;;24.00;20.90;;;19.40;76.20;;;;;;4939042;29;20257;-61
2021/11/14 12:19:29;;;;;;;23.53;19.90;;;18.20;80.90;;;;;;4938502;29;20307;-62
2021/11/14 12:21:58;;;;;;;24.70;21.83;;;17.50;85.10;;;;;;4942106;28;20191;-63
2021/11/14 12:24:24;;;;;;;24.57;20.83;;;17.00;88.50;;;;;;4955849;29;20191;-61
2021/11/14 12:26:50;;;;;;;26.50;22.13;;;16.60;91.00;;;;;;4955861;29;20191;-61
2021/11/14 12:29:31;;;;;;;24.43;21.17;;;16.00;92.70;;;;;;4939455;29;20198;-64
2021/11/14 12:31:59;;;;;;;24.87;22.17;;;15.20;95.50;;;;;;4955259;29;20350;-63
2021/11/14 12:34:28;;;;;;;27.67;22.30;;;14.80;98.00;;;;;;4954850;29;20213;-59
2021/11/14 12:37:09;;;;;;;24.33;21.07;;;14.50;99.80;;;;;;4952309;29;20202;-62
2021/11/14 12:39:36;;;;;;;25.87;21.23;;;14.40;99.90;;;;;;4952720;29;20179;-61
2021/11/14 12:42:11;;;;;;;23.90;20.13;;;14.70;99.90;;;;;;4952220;29;20183;-62
2021/11/14 12:44:43;;;;;;;23.97;20.37;;;14.80;99.90;;;;;;4952401;29;20198;-61
2021/11/14 12:47:26;;;;;;;23.67;19.77;;;15.10;99.90;;;;;;4986496;28;20189;-60
2021/11/14 12:50:08;;;;;;;22.50;19.87;;;15.20;99.90;;;;;;5013214;28;20200;-62